Time;durP1;ratioP1;P1;durP2;ratioP2;P2;SDS_P1;SDS_P2;PMS_P1;PMS_P2;Temp;Humidity;BMP_temperature;BMP_pressure;BME280_temperature;BME280_humidity;BME280_pressure;Samples;Min_cycle;Max_cycle;Signal;HPM_P1;HPM_P2
2022/04/01 00:00:28;;;;;;;0.70;0.70;;;4.70;99.90;;;;;;5106913;28;20221;-75
2022/04/01 00:02:54;;;;;;;0.83;0.83;;;4.60;99.90;;;;;;5111824;28;20271;-76
2022/04/01 00:05:19;;;;;;;0.80;0.80;;;4.70;99.90;;;;;;5111405;28;20183;-75
2022/04/01 00:07:45;;;;;;;0.87;0.87;;;4.70;99.90;;;;;;5112253;28;20169;-75
2022/04/01 00:10:11;;;;;;;0.90;0.90;;;4.60;99.90;;;;;;5111394;28;20287;-75
2022/04/01 00:12:44;;;;;;;0.70;0.70;;;4.60;99.90;;;;;;5111539;28;20217;-75
2022/04/01 00:15:12;;;;;;;1.00;1.00;;;4.60;99.90;;;;;;5111360;28;20173;-75
2022/04/01 00:17:37;;;;;;;0.80;0.80;;;4.60;99.90;;;;;;5111252;28;20704;-75
2022/04/01 00:20:04;;;;;;;0.80;0.80;;;4.60;99.90;;;;;;5110931;28;20192;-75
2022/04/01 00:22:29;;;;;;;0.80;0.80;;;4.60;99.90;;;;;;5111464;28;20230;-76
2022/04/01 00:24:55;;;;;;;0.70;0.70;;;4.60;99.90;;;;;;5111466;28;20629;-76
2022/04/01 00:27:20;;;;;;;0.70;0.70;;;4.50;99.90;;;;;;5111294;28;20263;-76
2022/04/01 00:29:48;;;;;;;0.70;0.70;;;4.50;99.90;;;;;;5110406;28;20212;-77
2022/04/01 00:32:14;;;;;;;0.80;0.80;;;4.60;99.90;;;;;;5111305;28;20176;-76
2022/04/01 00:34:40;;;;;;;0.87;0.87;;;4.60;99.90;;;;;;5111279;28;20272;-75
2022/04/01 00:37:05;;;;;;;0.80;0.80;;;4.50;99.90;;;;;;5111196;28;20218;-75
2022/04/01 00:39:31;;;;;;;0.80;0.80;;;4.60;99.90;;;;;;5110898;28;20174;-76
2022/04/01 00:41:59;;;;;;;0.73;0.73;;;4.50;99.90;;;;;;5111974;28;20301;-76
2022/04/01 00:44:27;;;;;;;0.70;0.70;;;4.50;99.90;;;;;;5111399;28;20179;-75
2022/04/01 00:46:57;;;;;;;0.90;0.90;;;4.50;99.90;;;;;;5111790;28;20556;-75
2022/04/01 00:49:25;;;;;;;0.83;0.83;;;4.70;99.90;;;;;;5110675;28;20197;-75
2022/04/01 00:51:52;;;;;;;0.80;0.80;;;4.60;99.90;;;;;;5111030;28;20221;-76
2022/04/01 00:54:18;;;;;;;0.80;0.80;;;4.40;99.90;;;;;;5111016;28;20173;-76
2022/04/01 00:56:44;;;;;;;0.90;0.90;;;4.40;99.90;;;;;;5110841;28;20284;-76
2022/04/01 00:59:10;;;;;;;0.70;0.70;;;4.40;99.90;;;;;;5110287;28;20276;-76
2022/04/01 01:01:37;;;;;;;0.73;0.73;;;4.30;99.90;;;;;;5110533;28;20235;-76
2022/04/01 01:04:05;;;;;;;0.80;0.80;;;4.40;99.90;;;;;;5110974;28;20165;-76
2022/04/01 01:06:37;;;;;;;0.80;0.80;;;4.40;99.90;;;;;;5110918;28;20207;-76
2022/04/01 01:09:03;;;;;;;0.80;0.80;;;4.40;99.90;;;;;;5110317;28;20583;-76
2022/04/01 01:11:30;;;;;;;0.90;0.90;;;4.40;99.90;;;;;;5113494;28;20265;-76
2022/04/01 01:13:56;;;;;;;0.90;0.90;;;4.40;99.90;;;;;;5114806;28;20173;-76
2022/04/01 01:16:22;;;;;;;0.87;0.87;;;4.40;99.90;;;;;;5114464;28;20180;-77
2022/04/01 01:19:05;;;;;;;0.80;0.80;;;4.50;99.90;;;;;;5114446;28;20302;-77
2022/04/01 01:21:32;;;;;;;0.80;0.80;;;4.40;99.90;;;;;;5114343;28;20197;-76
2022/04/01 01:24:03;;;;;;;0.80;0.80;;;4.30;99.90;;;;;;5114339;28;20173;-76
2022/04/01 01:26:29;;;;;;;0.90;0.90;;;4.30;99.90;;;;;;5114399;28;20234;-76
2022/04/01 01:29:32;;;;;;;0.90;0.90;;;4.30;99.90;;;;;;5113584;28;20184;-77
2022/04/01 01:32:03;;;;;;;0.70;0.70;;;4.40;99.90;;;;;;5114102;28;20184;-76
2022/04/01 01:34:32;;;;;;;0.80;0.80;;;4.30;99.90;;;;;;5114015;28;20209;-76
2022/04/01 01:36:59;;;;;;;0.80;0.80;;;4.30;99.90;;;;;;5114027;28;20204;-76
2022/04/01 01:39:25;;;;;;;0.90;0.90;;;4.30;99.90;;;;;;5113626;28;20226;-76
2022/04/01 01:41:53;;;;;;;0.80;0.80;;;4.30;99.90;;;;;;5113783;28;20213;-75
2022/04/01 01:44:20;;;;;;;0.80;0.80;;;4.40;99.90;;;;;;5113963;28;20255;-75
2022/04/01 01:46:46;;;;;;;0.80;0.80;;;4.40;99.90;;;;;;5113732;28;20177;-75
2022/04/01 01:49:12;;;;;;;0.80;0.80;;;4.40;99.90;;;;;;5113123;28;20176;-75
2022/04/01 01:57:07;;;;;;;0.90;0.90;;;4.20;99.90;;;;;;5113970;28;20269;-75
2022/04/01 01:59:34;;;;;;;0.80;0.80;;;4.20;99.90;;;;;;5112923;28;20197;-75
2022/04/01 02:02:03;;;;;;;0.90;0.90;;;4.20;99.90;;;;;;5113695;28;20176;-75
2022/04/01 02:04:29;;;;;;;0.80;0.80;;;4.10;99.90;;;;;;5113478;28;20584;-76
2022/04/01 02:06:54;;;;;;;0.90;0.90;;;4.20;99.90;;;;;;5113392;28;20687;-75
2022/04/01 02:09:20;;;;;;;0.90;0.90;;;4.10;99.90;;;;;;5112898;28;20259;-75
2022/04/01 02:11:46;;;;;;;0.80;0.80;;;4.10;99.90;;;;;;5113334;28;20322;-75
2022/04/01 02:14:11;;;;;;;0.80;0.80;;;4.10;99.90;;;;;;5113157;28;20737;-75
2022/04/01 02:16:38;;;;;;;0.90;0.90;;;4.20;99.90;;;;;;5113488;28;20674;-75
2022/04/01 02:19:03;;;;;;;0.90;0.90;;;4.20;99.90;;;;;;5112890;28;20179;-75
2022/04/01 02:21:29;;;;;;;0.73;0.73;;;4.20;99.90;;;;;;5112935;28;20194;-76
2022/04/01 02:23:55;;;;;;;0.80;0.80;;;4.10;99.90;;;;;;5113167;28;20181;-77
2022/04/01 02:26:21;;;;;;;0.90;0.90;;;4.20;99.90;;;;;;5113121;28;20173;-76
2022/04/01 02:28:48;;;;;;;0.80;0.80;;;4.20;99.90;;;;;;5112833;28;20186;-76
2022/04/01 02:31:14;;;;;;;0.80;0.80;;;4.30;99.90;;;;;;5112540;28;20208;-76
2022/04/01 02:33:42;;;;;;;0.80;0.80;;;4.30;99.90;;;;;;5112816;28;20202;-76
2022/04/01 02:36:10;;;;;;;0.80;0.80;;;4.10;99.90;;;;;;5112905;28;20542;-75
2022/04/01 02:38:40;;;;;;;0.80;0.80;;;4.20;99.90;;;;;;5112877;28;20216;-76
2022/04/01 02:41:07;;;;;;;0.90;0.90;;;4.00;99.90;;;;;;5112232;28;20196;-75
2022/04/01 02:43:33;;;;;;;0.80;0.80;;;4.00;99.90;;;;;;5112626;28;20593;-76
2022/04/01 02:45:59;;;;;;;0.90;0.90;;;3.90;99.90;;;;;;5112949;28;20522;-75
2022/04/01 02:48:25;;;;;;;0.70;0.70;;;4.10;99.90;;;;;;5112720;28;20169;-75
2022/04/01 02:50:51;;;;;;;0.80;0.80;;;4.10;99.90;;;;;;5112084;28;20213;-75
2022/04/01 02:53:17;;;;;;;0.80;0.80;;;4.00;99.90;;;;;;5112608;28;20165;-75
2022/04/01 02:55:43;;;;;;;0.80;0.80;;;4.00;99.90;;;;;;5112554;28;20204;-75
2022/04/01 02:58:09;;;;;;;0.70;0.70;;;4.10;99.90;;;;;;5112517;28;20189;-75
2022/04/01 03:00:39;;;;;;;0.80;0.80;;;4.10;99.90;;;;;;5093590;28;20208;-75
2022/04/01 03:03:08;;;;;;;0.80;0.80;;;4.20;99.90;;;;;;5112728;28;20180;-76
2022/04/01 03:05:35;;;;;;;0.70;0.70;;;4.20;99.90;;;;;;5094002;28;20767;-76
2022/04/01 03:08:03;;;;;;;0.70;0.70;;;4.20;99.90;;;;;;5112244;28;20260;-76
2022/04/01 03:10:30;;;;;;;0.80;0.80;;;4.20;99.90;;;;;;5111503;28;20289;-76
2022/04/01 03:12:56;;;;;;;0.80;0.80;;;4.30;99.90;;;;;;5112132;28;20696;-76
2022/04/01 03:15:21;;;;;;;0.80;0.80;;;4.20;99.90;;;;;;5112173;28;20177;-76
2022/04/01 03:17:47;;;;;;;0.73;0.73;;;4.30;99.90;;;;;;5112256;28;20187;-76
2022/04/01 03:20:13;;;;;;;0.80;0.80;;;4.30;99.90;;;;;;5111528;28;20198;-76
2022/04/01 03:22:43;;;;;;;0.90;0.90;;;4.30;99.90;;;;;;5112095;28;20177;-75
2022/04/01 03:25:18;;;;;;;0.80;0.80;;;4.10;99.90;;;;;;5111876;28;20606;-76
2022/04/01 03:27:47;;;;;;;0.70;0.70;;;4.10;99.90;;;;;;5111930;28;20169;-76
2022/04/01 03:30:13;;;;;;;0.80;0.80;;;4.10;99.90;;;;;;5112151;28;20220;-76
2022/04/01 03:32:41;;;;;;;0.90;0.90;;;4.10;99.90;;;;;;5112592;28;20233;-75
2022/04/01 03:35:14;;;;;;;0.70;0.70;;;4.10;99.90;;;;;;5111783;28;20173;-75
2022/04/01 03:37:41;;;;;;;0.70;0.70;;;3.80;99.90;;;;;;5112989;28;20181;-75
2022/04/01 03:40:07;;;;;;;0.80;0.80;;;3.80;99.90;;;;;;5112114;28;20220;-75
2022/04/01 03:42:32;;;;;;;0.80;0.80;;;3.80;99.90;;;;;;5112633;28;20173;-76
2022/04/01 03:45:03;;;;;;;0.80;0.80;;;3.80;99.90;;;;;;5112919;28;20234;-76
2022/04/01 03:47:41;;;;;;;0.80;0.80;;;3.80;99.90;;;;;;5112894;28;20206;-76
2022/04/01 03:50:09;;;;;;;0.90;0.90;;;3.70;99.90;;;;;;5114355;28;20240;-75
2022/04/01 03:52:35;;;;;;;0.80;0.80;;;3.70;99.90;;;;;;5132643;27;20181;-76
2022/04/01 03:55:04;;;;;;;0.90;0.90;;;3.70;99.90;;;;;;5137457;27;20193;-76
2022/04/01 03:57:39;;;;;;;0.80;0.80;;;3.70;99.90;;;;;;5127127;27;20177;-76
2022/04/01 04:00:13;;;;;;;0.80;0.80;;;3.60;99.90;;;;;;5135660;27;20207;-77
2022/04/01 04:02:44;;;;;;;0.80;0.80;;;3.70;99.90;;;;;;5135560;28;20190;-76
2022/04/01 04:05:10;;;;;;;0.90;0.90;;;3.70;99.90;;;;;;5136642;28;20161;-77
2022/04/01 04:07:39;;;;;;;0.83;0.83;;;3.70;99.90;;;;;;5137456;28;20181;-77
2022/04/01 04:10:06;;;;;;;0.70;0.70;;;3.80;99.90;;;;;;5132942;27;20228;-76
2022/04/01 04:12:35;;;;;;;0.90;0.90;;;3.80;99.90;;;;;;5136913;27;20194;-76
2022/04/01 04:15:01;;;;;;;0.80;0.80;;;3.90;99.90;;;;;;5136459;27;20165;-76
2022/04/01 04:17:39;;;;;;;0.90;0.90;;;3.80;99.90;;;;;;5136059;27;20177;-76
2022/04/01 04:20:08;;;;;;;0.80;0.80;;;3.90;99.90;;;;;;5136247;27;20189;-78
2022/04/01 04:22:57;;;;;;;0.80;0.80;;;3.90;99.90;;;;;;5133841;28;20177;-77
2022/04/01 04:25:31;;;;;;;0.80;0.80;;;3.90;99.90;;;;;;5135887;28;20157;-79
2022/04/01 04:27:58;;;;;;;0.90;0.90;;;3.90;99.90;;;;;;5136509;28;20191;-77
2022/04/01 04:30:35;;;;;;;0.87;0.87;;;3.90;99.90;;;;;;5134832;28;20237;-77
2022/04/01 04:33:06;;;;;;;0.80;0.80;;;3.90;99.90;;;;;;5135636;27;20236;-76
2022/04/01 04:35:36;;;;;;;0.70;0.70;;;3.80;99.90;;;;;;5132707;28;20205;-77
2022/04/01 04:38:02;;;;;;;0.80;0.80;;;3.90;99.90;;;;;;5128797;28;20204;-77
2022/04/01 04:40:29;;;;;;;0.80;0.80;;;3.90;99.90;;;;;;5132450;28;20193;-76
2022/04/01 04:42:55;;;;;;;0.80;0.80;;;3.80;99.90;;;;;;5126013;28;20180;-76
2022/04/01 04:45:24;;;;;;;0.90;0.90;;;3.90;99.90;;;;;;5123842;28;20169;-77
2022/04/01 04:47:50;;;;;;;0.70;0.70;;;3.70;99.90;;;;;;5138490;28;20188;-77
2022/04/01 04:50:16;;;;;;;0.93;0.93;;;3.60;99.90;;;;;;5135453;28;20216;-76
2022/04/01 04:52:45;;;;;;;0.90;0.90;;;3.60;99.90;;;;;;5137164;27;20183;-76
2022/04/01 04:55:14;;;;;;;0.80;0.80;;;3.50;99.90;;;;;;5140119;27;20165;-77
2022/04/01 04:57:42;;;;;;;0.80;0.80;;;3.60;99.90;;;;;;5138936;22;20217;-73
2022/04/01 05:00:08;;;;;;;0.80;0.80;;;3.40;99.90;;;;;;5094493;28;20224;-73
2022/04/01 05:03:07;;;;;;;0.90;0.90;;;3.40;99.90;;;;;;5095131;28;20201;-74
2022/04/01 05:05:54;;;;;;;0.90;0.90;;;3.40;99.90;;;;;;5086304;28;20171;-73
2022/04/01 05:08:44;;;;;;;0.80;0.80;;;3.40;99.90;;;;;;5084785;28;20186;-74
2022/04/01 05:11:16;;;;;;;0.80;0.80;;;3.40;99.90;;;;;;5076512;28;20267;-73
2022/04/01 05:14:29;;;;;;;0.80;0.80;;;3.30;99.90;;;;;;5089780;28;20256;-71
2022/04/01 05:17:04;;;;;;;0.80;0.80;;;3.20;99.90;;;;;;5079664;28;20212;-72
2022/04/01 05:19:31;;;;;;;0.80;0.80;;;3.30;99.90;;;;;;5087038;28;20169;-72
2022/04/01 05:22:07;;;;;;;0.80;0.80;;;3.30;99.90;;;;;;5089679;28;20170;-71
2022/04/01 05:24:42;;;;;;;0.90;0.90;;;3.40;99.90;;;;;;5093930;28;20169;-72
2022/04/01 05:27:21;;;;;;;0.80;0.80;;;3.40;99.90;;;;;;5090361;28;20192;-72
2022/04/01 05:29:54;;;;;;;0.83;0.83;;;3.30;99.90;;;;;;5090507;28;20205;-72
2022/04/01 05:32:21;;;;;;;0.70;0.70;;;3.30;99.90;;;;;;5088022;28;20217;-72
2022/04/01 05:34:49;;;;;;;0.80;0.80;;;3.20;99.90;;;;;;5082657;28;20170;-73
2022/04/01 05:37:15;;;;;;;0.77;0.77;;;3.20;99.90;;;;;;5085102;28;20186;-74
2022/04/01 05:39:46;;;;;;;0.70;0.70;;;3.20;99.90;;;;;;5086346;28;20255;-73
2022/04/01 05:42:12;;;;;;;0.90;0.90;;;3.10;99.90;;;;;;5077477;28;20178;-73
2022/04/01 05:44:40;;;;;;;0.87;0.87;;;3.10;99.90;;;;;;5090151;28;20179;-73
2022/04/01 05:47:07;;;;;;;0.80;0.80;;;3.10;99.90;;;;;;5081683;28;20178;-72
2022/04/01 05:49:35;;;;;;;0.77;0.77;;;3.30;99.90;;;;;;5093723;28;20178;-73
2022/04/01 05:52:02;;;;;;;0.80;0.80;;;3.10;99.90;;;;;;5092471;28;20189;-73
2022/04/01 05:54:28;;;;;;;0.80;0.80;;;3.10;99.90;;;;;;5071527;28;20418;-72
2022/04/01 05:56:54;;;;;;;0.80;0.80;;;3.30;99.90;;;;;;5072655;28;20182;-73
2022/04/01 05:59:22;;;;;;;0.80;0.80;;;3.10;99.90;;;;;;5072112;28;20170;-73
2022/04/01 06:02:19;;;;;;;0.77;0.77;;;3.20;99.90;;;;;;5090401;28;20209;-73
2022/04/01 06:05:08;;;;;;;0.97;0.97;;;3.00;99.90;;;;;;5089007;28;20190;-72
2022/04/01 06:07:58;;;;;;;0.80;0.80;;;3.00;99.90;;;;;;5044503;28;20174;-73
2022/04/01 06:10:39;;;;;;;0.80;0.80;;;3.00;99.90;;;;;;5090997;28;20255;-73
2022/04/01 06:13:31;;;;;;;0.90;0.90;;;3.00;99.90;;;;;;5081652;28;20581;-75
2022/04/01 06:16:20;;;;;;;0.90;0.90;;;3.10;99.90;;;;;;5073199;28;20178;-73
2022/04/01 06:19:24;;;;;;;0.80;0.80;;;3.00;99.90;;;;;;5073134;28;20253;-73
2022/04/01 06:22:05;;;;;;;0.80;0.80;;;3.00;99.90;;;;;;5076100;28;20267;-72
2022/04/01 06:24:56;;;;;;;0.80;0.80;;;3.00;99.90;;;;;;5086063;28;20181;-73
2022/04/01 06:27:27;;;;;;;0.80;0.80;;;3.10;99.90;;;;;;5080699;28;20220;-70
2022/04/01 06:30:05;;;;;;;0.80;0.80;;;3.10;99.90;;;;;;5091848;28;20281;-70
2022/04/01 06:32:49;;;;;;;0.80;0.80;;;3.20;99.90;;;;;;5080011;28;20178;-70
2022/04/01 06:35:31;;;;;;;0.83;0.83;;;3.20;99.90;;;;;;5090168;28;20170;-71
2022/04/01 06:38:05;;;;;;;0.90;0.90;;;3.30;99.90;;;;;;5088744;28;20166;-70
2022/04/01 06:40:38;;;;;;;0.80;0.80;;;3.30;99.90;;;;;;5086982;28;20198;-69
2022/04/01 06:43:04;;;;;;;0.80;0.80;;;3.20;99.90;;;;;;5090906;28;20178;-69
2022/04/01 06:45:30;;;;;;;0.80;0.80;;;3.20;99.90;;;;;;5079973;28;20253;-69
2022/04/01 06:47:56;;;;;;;0.87;0.87;;;3.00;99.90;;;;;;5084006;28;20577;-69
2022/04/01 06:50:21;;;;;;;0.73;0.73;;;3.10;99.90;;;;;;5071761;28;20206;-69
2022/04/01 06:52:47;;;;;;;0.70;0.70;;;3.20;99.90;;;;;;5071944;28;20360;-69
2022/04/01 06:55:13;;;;;;;0.70;0.70;;;3.30;99.90;;;;;;5077103;28;20577;-71
2022/04/01 06:57:39;;;;;;;0.80;0.80;;;3.50;99.90;;;;;;5078347;28;20229;-69
2022/04/01 07:00:08;;;;;;;0.80;0.80;;;3.40;99.90;;;;;;5082766;28;20194;-69
2022/04/01 07:02:34;;;;;;;0.80;0.80;;;3.30;99.90;;;;;;5086167;28;20204;-71
2022/04/01 07:05:00;;;;;;;0.80;0.80;;;3.40;99.90;;;;;;5077952;28;20247;-70
2022/04/01 07:07:26;;;;;;;0.80;0.80;;;3.30;99.90;;;;;;5091339;28;20540;-68
2022/04/01 07:09:52;;;;;;;0.80;0.80;;;3.60;99.90;;;;;;5078595;28;20213;-68
2022/04/01 07:12:17;;;;;;;0.80;0.80;;;3.60;99.90;;;;;;5092472;28;20219;-68
2022/04/01 07:14:43;;;;;;;0.70;0.70;;;3.80;99.90;;;;;;5077576;28;20259;-68
2022/04/01 07:17:08;;;;;;;0.70;0.70;;;3.70;99.90;;;;;;5088411;28;20622;-67
2022/04/01 07:19:34;;;;;;;0.80;0.80;;;4.00;99.90;;;;;;5086695;28;20170;-67
2022/04/01 07:22:00;;;;;;;0.80;0.80;;;3.80;99.90;;;;;;5083279;28;20206;-68
2022/04/01 07:24:26;;;;;;;0.80;0.80;;;3.80;99.90;;;;;;5085170;28;20175;-68
2022/04/01 07:26:52;;;;;;;0.80;0.80;;;3.70;99.90;;;;;;5085310;28;20226;-67
2022/04/01 07:29:18;;;;;;;0.90;0.90;;;4.10;99.90;;;;;;5072028;28;20595;-68
2022/04/01 07:34:38;;;;;;;0.80;0.80;;;3.80;99.90;;;;;;5071475;28;20316;-71
2022/04/01 07:37:05;;;;;;;0.80;0.80;;;3.50;99.90;;;;;;5078734;28;20174;-70
2022/04/01 07:39:31;;;;;;;0.90;0.90;;;3.40;99.90;;;;;;5075563;28;20669;-71
2022/04/01 07:41:56;;;;;;;0.80;0.80;;;3.40;99.90;;;;;;5077830;28;20697;-71
2022/04/01 07:44:22;;;;;;;0.90;0.90;;;3.40;99.90;;;;;;5076916;28;20486;-71
2022/04/01 07:46:51;;;;;;;0.80;0.80;;;3.20;99.90;;;;;;5077949;28;20194;-70
2022/04/01 07:49:18;;;;;;;0.87;0.87;;;3.30;99.90;;;;;;5077127;28;20182;-71
2022/04/01 07:51:43;;;;;;;0.70;0.70;;;3.30;99.90;;;;;;5077686;28;20217;-71
2022/04/01 07:54:13;;;;;;;0.90;0.90;;;3.30;99.90;;;;;;5078951;28;20555;-70
2022/04/01 07:56:40;;;;;;;0.90;0.90;;;3.20;99.90;;;;;;5078641;28;20315;-70
2022/04/01 07:59:07;;;;;;;0.90;0.90;;;3.20;99.90;;;;;;5076766;28;20186;-70
2022/04/01 08:01:34;;;;;;;0.90;0.90;;;3.20;99.90;;;;;;5077875;28;20198;-71
2022/04/01 08:03:59;;;;;;;0.90;0.90;;;3.20;99.90;;;;;;5076529;28;20185;-70
2022/04/01 08:06:25;;;;;;;0.87;0.87;;;3.20;99.90;;;;;;5077736;28;21966;-71
2022/04/01 08:08:52;;;;;;;0.80;0.80;;;3.40;99.90;;;;;;5078101;28;20177;-71
2022/04/01 08:11:17;;;;;;;0.80;0.80;;;3.40;99.90;;;;;;5077908;28;20363;-70
2022/04/01 08:13:43;;;;;;;0.83;0.83;;;3.50;99.90;;;;;;5079494;28;20175;-71
2022/04/01 08:16:10;;;;;;;0.83;0.83;;;3.50;99.90;;;;;;5077230;28;20667;-70
2022/04/01 08:18:36;;;;;;;0.80;0.80;;;3.60;99.90;;;;;;5077029;28;20244;-70
2022/04/01 08:21:02;;;;;;;0.80;0.80;;;3.60;99.90;;;;;;5080906;28;20225;-72
2022/04/01 08:23:31;;;;;;;0.90;0.90;;;3.60;99.90;;;;;;5080539;28;20182;-71
2022/04/01 08:25:56;;;;;;;0.80;0.80;;;3.70;99.90;;;;;;5081401;28;20191;-71
2022/04/01 08:28:22;;;;;;;0.80;0.80;;;3.80;99.90;;;;;;5081918;28;20182;-71
2022/04/01 08:30:48;;;;;;;0.87;0.87;;;3.70;99.90;;;;;;5080275;28;20214;-71
2022/04/01 08:33:17;;;;;;;0.90;0.90;;;3.70;99.90;;;;;;5082066;28;20205;-72
2022/04/01 08:35:43;;;;;;;0.80;0.80;;;3.80;99.90;;;;;;5082029;28;20186;-71
2022/04/01 08:38:09;;;;;;;0.80;0.80;;;3.60;99.90;;;;;;5082290;28;20264;-71
2022/04/01 08:40:34;;;;;;;0.90;0.90;;;3.70;99.90;;;;;;5079917;28;20229;-71
2022/04/01 08:43:00;;;;;;;1.00;1.00;;;3.70;99.90;;;;;;5080987;28;20271;-71
2022/04/01 08:45:26;;;;;;;0.83;0.83;;;3.60;99.90;;;;;;5080884;28;20178;-71
2022/04/01 08:47:52;;;;;;;0.80;0.80;;;3.70;99.90;;;;;;5080402;28;20575;-72
2022/04/01 08:50:17;;;;;;;0.90;0.90;;;3.60;99.90;;;;;;5079757;28;20240;-70
2022/04/01 08:52:43;;;;;;;0.80;0.80;;;3.40;99.90;;;;;;5078298;28;20173;-72
2022/04/01 08:55:10;;;;;;;0.80;0.80;;;3.50;99.90;;;;;;5081779;28;20630;-72
2022/04/01 08:57:42;;;;;;;0.90;0.90;;;3.40;99.90;;;;;;5081012;28;20619;-72
2022/04/01 09:00:11;;;;;;;0.87;0.87;;;3.40;99.90;;;;;;5080121;28;20254;-72
2022/04/01 09:02:37;;;;;;;0.90;0.90;;;3.30;99.90;;;;;;5080225;28;20659;-72
2022/04/01 09:05:04;;;;;;;0.77;0.77;;;3.40;99.90;;;;;;5079857;28;20439;-74
2022/04/01 09:07:30;;;;;;;0.77;0.77;;;3.80;99.90;;;;;;5079806;28;20193;-72
2022/04/01 09:10:05;;;;;;;0.83;0.83;;;3.50;99.90;;;;;;5080106;28;20710;-73
2022/04/01 09:12:31;;;;;;;0.80;0.80;;;3.30;99.90;;;;;;5080475;28;20178;-72
2022/04/01 09:14:58;;;;;;;0.80;0.80;;;3.30;99.90;;;;;;5080323;28;20563;-72
2022/04/01 09:17:40;;;;;;;0.80;0.80;;;3.10;99.90;;;;;;5079398;28;20166;-73
2022/04/01 09:20:06;;;;;;;0.90;0.90;;;3.20;99.90;;;;;;5080852;28;20193;-72
2022/04/01 09:22:32;;;;;;;0.90;0.90;;;3.20;99.90;;;;;;5079782;28;20181;-72
2022/04/01 09:25:05;;;;;;;1.00;1.00;;;3.30;99.90;;;;;;5081090;28;20182;-72
2022/04/01 09:27:37;;;;;;;1.00;1.00;;;3.40;99.90;;;;;;5080270;28;20235;-72
2022/04/01 09:30:04;;;;;;;1.00;1.00;;;3.40;99.90;;;;;;5079518;28;20303;-72
2022/04/01 09:32:37;;;;;;;0.90;0.90;;;3.40;99.90;;;;;;5078555;28;20243;-72
2022/04/01 09:35:02;;;;;;;0.90;0.90;;;3.40;99.90;;;;;;5079855;28;20171;-72
2022/04/01 09:37:39;;;;;;;1.00;1.00;;;3.40;99.90;;;;;;5080957;28;20186;-71
2022/04/01 09:40:06;;;;;;;0.90;0.90;;;3.50;99.90;;;;;;5079903;28;20308;-72
2022/04/01 09:42:32;;;;;;;0.90;0.90;;;3.50;99.90;;;;;;5079545;28;20279;-73
2022/04/01 09:44:58;;;;;;;0.80;0.80;;;3.40;99.90;;;;;;5080406;28;20181;-71
2022/04/01 09:47:24;;;;;;;0.90;0.90;;;3.40;99.90;;;;;;5078044;28;20203;-72
2022/04/01 09:49:52;;;;;;;0.90;0.90;;;3.30;99.90;;;;;;5079932;28;20978;-72
2022/04/01 09:52:20;;;;;;;0.90;0.90;;;3.20;99.90;;;;;;5079826;28;20194;-71
2022/04/01 09:54:54;;;;;;;0.90;0.90;;;3.10;99.90;;;;;;5081269;28;20188;-72
2022/04/01 09:57:23;;;;;;;0.80;0.80;;;3.30;99.90;;;;;;5079806;28;20209;-72
2022/04/01 09:59:50;;;;;;;0.90;0.90;;;3.10;99.90;;;;;;5079829;28;20210;-70
2022/04/01 10:02:17;;;;;;;0.90;0.90;;;3.10;99.90;;;;;;5079361;28;20176;-72
2022/04/01 10:04:43;;;;;;;0.80;0.80;;;3.20;99.90;;;;;;5080082;28;20179;-72
2022/04/01 10:07:09;;;;;;;0.90;0.90;;;3.30;99.90;;;;;;5080135;28;20221;-71
2022/04/01 10:09:36;;;;;;;0.90;0.90;;;3.40;99.90;;;;;;5078474;28;20198;-71
2022/04/01 10:12:07;;;;;;;0.83;0.83;;;3.40;99.90;;;;;;5079753;28;20654;-71
2022/04/01 10:14:34;;;;;;;0.80;0.80;;;3.40;99.90;;;;;;5080640;28;20189;-71
2022/04/01 10:17:01;;;;;;;0.90;0.90;;;3.50;99.90;;;;;;5079120;28;20236;-71
2022/04/01 10:19:32;;;;;;;0.80;0.80;;;3.40;99.90;;;;;;5079369;28;20166;-71
2022/04/01 10:21:59;;;;;;;0.90;0.90;;;3.30;99.90;;;;;;5079819;28;20186;-70
2022/04/01 10:24:43;;;;;;;0.80;0.80;;;3.20;99.90;;;;;;5079009;28;20174;-72
2022/04/01 10:27:23;;;;;;;0.87;0.87;;;3.40;99.90;;;;;;5080727;28;20178;-72
2022/04/01 10:29:49;;;;;;;0.80;0.80;;;3.20;99.90;;;;;;5079759;28;20208;-71
2022/04/01 10:32:28;;;;;;;0.93;0.93;;;3.30;99.90;;;;;;5080267;28;20170;-71
2022/04/01 10:34:58;;;;;;;0.90;0.90;;;3.20;99.90;;;;;;5079978;28;20705;-72
2022/04/01 10:37:26;;;;;;;0.80;0.80;;;3.20;99.90;;;;;;5079212;28;20182;-72
2022/04/01 10:39:59;;;;;;;0.90;0.90;;;3.10;99.90;;;;;;5078608;28;20205;-72
2022/04/01 10:42:37;;;;;;;0.90;0.90;;;3.20;99.90;;;;;;5078325;28;20193;-72
2022/04/01 10:45:06;;;;;;;1.00;1.00;;;3.20;99.90;;;;;;5078561;28;20754;-72
2022/04/01 10:53:40;;;;;;;0.80;0.80;;;3.10;99.90;;;;;;5079342;28;20291;-72
2022/04/01 10:56:21;;;;;;;0.90;0.90;;;3.00;99.90;;;;;;5078780;28;20555;-72
2022/04/01 10:59:04;;;;;;;1.00;1.00;;;3.20;99.90;;;;;;5094282;22;20183;-75
2022/04/01 11:01:31;;;;;;;0.90;0.90;;;3.10;99.90;;;;;;5043853;28;20215;-75
2022/04/01 11:04:02;;;;;;;0.93;0.93;;;3.10;99.90;;;;;;5044034;28;20179;-75
2022/04/01 11:06:28;;;;;;;0.90;0.90;;;3.00;99.90;;;;;;5044754;28;20202;-75
2022/04/01 11:08:55;;;;;;;0.87;0.87;;;3.10;99.90;;;;;;5044597;28;20187;-75
2022/04/01 11:11:21;;;;;;;0.80;0.80;;;3.10;99.90;;;;;;5044834;28;20242;-76
2022/04/01 11:14:06;;;;;;;0.80;0.80;;;3.10;99.90;;;;;;5044302;28;20199;-74
2022/04/01 11:17:06;;;;;;;1.00;1.00;;;3.20;99.90;;;;;;5044319;28;20258;-74
2022/04/01 11:19:31;;;;;;;0.90;0.90;;;3.10;99.90;;;;;;5010724;28;20189;-73
2022/04/01 11:21:58;;;;;;;0.80;0.80;;;3.20;99.90;;;;;;5044349;28;20171;-74
2022/04/01 11:24:33;;;;;;;0.90;0.90;;;3.30;99.90;;;;;;5043154;28;20494;-74
2022/04/01 11:27:23;;;;;;;0.80;0.80;;;3.10;99.90;;;;;;5044400;28;20209;-74
2022/04/01 11:30:03;;;;;;;0.80;0.80;;;3.20;99.90;;;;;;5043724;28;20210;-74
2022/04/01 11:32:29;;;;;;;0.87;0.87;;;3.20;99.90;;;;;;5044477;28;20671;-74
2022/04/01 11:34:55;;;;;;;0.90;0.90;;;3.40;99.90;;;;;;5043784;28;20180;-73
2022/04/01 11:37:21;;;;;;;0.90;0.90;;;3.50;99.90;;;;;;5044440;28;20183;-73
2022/04/01 11:39:47;;;;;;;0.90;0.90;;;3.20;99.90;;;;;;5042911;28;20210;-73
2022/04/01 11:42:12;;;;;;;0.80;0.80;;;3.30;99.90;;;;;;5043980;28;20175;-73
2022/04/01 11:44:38;;;;;;;1.00;1.00;;;3.50;99.90;;;;;;5042661;28;20178;-72
2022/04/01 11:47:04;;;;;;;1.00;1.00;;;3.40;99.90;;;;;;5042855;28;20186;-73
2022/04/01 11:49:29;;;;;;;0.90;0.90;;;3.20;99.90;;;;;;5043004;28;20274;-74
2022/04/01 11:51:55;;;;;;;0.80;0.80;;;3.30;99.90;;;;;;5043730;28;20290;-73
2022/04/01 11:54:21;;;;;;;0.80;0.80;;;3.10;99.90;;;;;;5043297;28;20282;-73
2022/04/01 11:56:52;;;;;;;0.83;0.83;;;3.10;99.90;;;;;;5043317;28;20270;-73
2022/04/01 11:59:18;;;;;;;0.90;0.90;;;3.20;99.90;;;;;;5043242;28;20198;-71
2022/04/01 12:01:57;;;;;;;0.87;0.87;;;3.10;99.90;;;;;;5043832;28;20195;-73
2022/04/01 12:04:30;;;;;;;0.90;0.90;;;3.10;99.90;;;;;;5041863;28;20189;-73
2022/04/01 12:09:44;;;;;;;0.90;0.90;;;3.40;99.90;;;;;;5042559;28;20615;-73
2022/04/01 12:12:10;;;;;;;0.80;0.80;;;3.40;99.90;;;;;;5045432;28;20175;-73
2022/04/01 12:14:38;;;;;;;0.80;0.80;;;3.50;99.90;;;;;;5024316;28;20811;-73
2022/04/01 12:17:06;;;;;;;0.90;0.90;;;3.40;99.90;;;;;;5047789;28;20183;-73
2022/04/01 12:19:32;;;;;;;0.80;0.80;;;3.50;99.90;;;;;;5048826;28;20179;-73
2022/04/01 12:22:00;;;;;;;1.00;1.00;;;3.40;99.90;;;;;;5032455;28;20183;-73
2022/04/01 12:24:30;;;;;;;0.97;0.97;;;3.30;99.90;;;;;;5047423;28;20710;-73
2022/04/01 12:26:56;;;;;;;0.90;0.90;;;3.30;99.90;;;;;;5036311;28;20175;-73
2022/04/01 12:29:24;;;;;;;0.90;0.90;;;3.30;99.90;;;;;;5041544;28;20183;-73
2022/04/01 12:31:56;;;;;;;0.80;0.80;;;3.40;99.90;;;;;;5043788;28;20241;-73
2022/04/01 12:34:23;;;;;;;0.70;0.70;;;3.60;99.90;;;;;;5047450;28;20178;-73
2022/04/01 12:36:54;;;;;;;0.80;0.80;;;3.10;99.90;;;;;;5035171;28;20254;-73
2022/04/01 12:39:20;;;;;;;0.80;0.80;;;3.10;99.90;;;;;;5041909;28;20186;-74
2022/04/01 12:41:54;;;;;;;0.80;0.80;;;2.90;99.90;;;;;;5037007;28;20199;-73
2022/04/01 12:44:25;;;;;;;0.77;0.77;;;2.80;99.90;;;;;;5032352;28;20184;-73
2022/04/01 12:46:51;;;;;;;0.80;0.80;;;3.10;99.90;;;;;;5046192;28;20172;-73
2022/04/01 12:49:19;;;;;;;0.73;0.73;;;3.00;99.90;;;;;;5038189;28;20180;-73
2022/04/01 12:51:55;;;;;;;0.80;0.80;;;3.20;99.90;;;;;;5035196;28;20335;-73
2022/04/01 12:54:42;;;;;;;0.80;0.80;;;3.30;99.90;;;;;;5037937;28;20635;-73
2022/04/01 12:57:13;;;;;;;0.73;0.73;;;3.10;99.90;;;;;;5037368;28;20180;-73
2022/04/01 12:59:42;;;;;;;0.80;0.80;;;3.20;99.90;;;;;;5030121;28;20321;-75
2022/04/01 13:02:09;;;;;;;0.80;0.80;;;3.40;99.90;;;;;;5045330;28;20179;-73
2022/04/01 13:04:43;;;;;;;0.90;0.90;;;3.30;99.90;;;;;;5033464;28;20644;-73
2022/04/01 13:07:18;;;;;;;0.80;0.80;;;3.30;99.90;;;;;;5039021;28;20490;-73
2022/04/01 13:10:01;;;;;;;0.83;0.83;;;3.10;99.90;;;;;;5037274;28;20278;-73
2022/04/01 13:12:36;;;;;;;0.87;0.87;;;3.20;99.90;;;;;;5036573;28;20179;-72
2022/04/01 13:15:11;;;;;;;0.70;0.70;;;3.10;99.90;;;;;;5040711;28;20187;-72
2022/04/01 13:17:49;;;;;;;0.90;0.90;;;3.00;99.90;;;;;;5048364;28;20675;-73
2022/04/01 13:20:19;;;;;;;0.83;0.83;;;2.90;99.90;;;;;;5040047;28;20213;-72
2022/04/01 13:22:45;;;;;;;0.90;0.90;;;2.80;99.90;;;;;;5042256;28;20179;-73
2022/04/01 13:25:15;;;;;;;0.80;0.80;;;2.70;99.90;;;;;;5045502;28;20540;-72
2022/04/01 13:27:42;;;;;;;0.70;0.70;;;2.60;99.90;;;;;;5042794;28;20176;-72